Time;durP1;ratioP1;P1;durP2;ratioP2;P2;SDS_P1;SDS_P2;PMS_P1;PMS_P2;Temp;Humidity;BMP_temperature;BMP_pressure;BME280_temperature;BME280_humidity;BME280_pressure;Samples;Min_cycle;Max_cycle;Signal;HPM_P1;HPM_P2
2021/08/11 00:01:40;;;;;;;2.93;2.73;;;23.90;55.90;;;;;;5088000;28;20437;-84
2021/08/11 00:04:08;;;;;;;2.53;2.43;;;23.90;55.90;;;;;;5091940;28;20440;-83
2021/08/11 00:06:36;;;;;;;2.83;2.63;;;23.90;55.90;;;;;;5095341;28;20502;-82
2021/08/11 00:09:04;;;;;;;3.10;2.90;;;23.80;55.90;;;;;;5093683;28;20459;-82
2021/08/11 00:11:33;;;;;;;3.27;2.97;;;23.80;55.90;;;;;;5093849;28;20445;-83
2021/08/11 00:14:01;;;;;;;2.60;2.50;;;23.80;56.00;;;;;;5088751;28;20470;-83
2021/08/11 00:16:29;;;;;;;2.97;2.77;;;23.80;56.00;;;;;;5094134;28;20507;-83
2021/08/11 00:18:57;;;;;;;5.20;3.00;;;23.80;56.00;;;;;;5093595;28;20458;-83
2021/08/11 00:21:25;;;;;;;2.57;2.47;;;23.80;55.90;;;;;;5093283;28;20403;-83
2021/08/11 00:23:53;;;;;;;3.20;2.93;;;23.80;56.00;;;;;;5084995;28;20456;-82
2021/08/11 00:26:21;;;;;;;2.97;2.87;;;23.80;56.00;;;;;;5085102;28;20440;-82
2021/08/11 00:28:50;;;;;;;3.03;2.83;;;23.70;56.00;;;;;;5084747;28;20456;-82
2021/08/11 00:31:18;;;;;;;3.00;2.60;;;23.70;55.80;;;;;;5090281;28;20417;-83
2021/08/11 00:33:46;;;;;;;3.37;2.90;;;23.70;55.90;;;;;;5093065;28;20536;-83
2021/08/11 00:36:13;;;;;;;2.93;2.70;;;23.70;56.00;;;;;;5093102;28;20460;-83
2021/08/11 00:38:41;;;;;;;2.90;2.70;;;23.70;56.00;;;;;;5092896;28;20511;-83
2021/08/11 00:41:09;;;;;;;3.03;2.83;;;23.60;56.00;;;;;;5086665;28;20472;-83
2021/08/11 00:43:37;;;;;;;3.27;3.07;;;23.70;56.00;;;;;;5088492;28;20456;-83
2021/08/11 00:46:09;;;;;;;2.87;2.77;;;23.60;55.90;;;;;;5091613;28;20445;-83
2021/08/11 00:48:37;;;;;;;2.57;2.47;;;23.60;55.90;;;;;;5093167;28;20431;-83
2021/08/11 00:51:05;;;;;;;2.90;2.70;;;23.60;56.00;;;;;;5095745;28;20523;-83
2021/08/11 00:53:33;;;;;;;3.17;2.97;;;23.60;56.00;;;;;;5096546;28;20421;-83
2021/08/11 00:56:02;;;;;;;2.70;2.60;;;23.60;55.90;;;;;;5076012;28;20471;-83
2021/08/11 00:58:30;;;;;;;2.90;2.70;;;23.50;55.90;;;;;;5090209;28;20514;-83
2021/08/11 01:00:58;;;;;;;2.90;2.80;;;23.60;56.00;;;;;;5089505;28;20468;-82
2021/08/11 01:03:28;;;;;;;2.80;2.60;;;23.50;56.00;;;;;;5070684;28;20422;-83
2021/08/11 01:05:57;;;;;;;2.80;2.60;;;23.50;56.00;;;;;;5071249;28;20442;-82
2021/08/11 01:08:25;;;;;;;2.77;2.67;;;23.50;56.00;;;;;;5076494;28;20457;-83
2021/08/11 01:10:53;;;;;;;3.27;3.03;;;23.50;56.00;;;;;;5086386;28;20441;-82
2021/08/11 01:13:21;;;;;;;2.43;2.33;;;23.50;56.10;;;;;;5085322;28;20878;-82
2021/08/11 01:15:49;;;;;;;3.23;3.00;;;23.50;56.20;;;;;;5093276;28;20440;-82
2021/08/11 01:18:17;;;;;;;2.70;2.60;;;23.40;56.00;;;;;;5095852;28;20456;-83
2021/08/11 01:20:51;;;;;;;3.03;2.83;;;23.50;56.10;;;;;;5095497;28;20452;-82
2021/08/11 01:23:20;;;;;;;2.80;2.60;;;23.40;55.90;;;;;;5098764;28;20531;-82
2021/08/11 01:25:51;;;;;;;2.87;2.67;;;23.40;55.90;;;;;;5095729;28;20904;-82
2021/08/11 01:28:33;;;;;;;2.60;2.50;;;23.40;56.00;;;;;;5090816;28;20483;-83
2021/08/11 01:31:04;;;;;;;2.80;2.60;;;23.40;55.90;;;;;;5085412;28;20783;-86
2021/08/11 01:33:45;;;;;;;2.67;2.57;;;23.40;56.10;;;;;;5086422;28;20527;-83
2021/08/11 01:36:20;;;;;;;2.73;2.63;;;23.40;56.00;;;;;;5083105;28;20469;-83
2021/08/11 01:38:50;;;;;;;3.03;2.83;;;23.40;56.00;;;;;;5086276;28;20491;-83
2021/08/11 01:41:18;;;;;;;2.87;2.70;;;23.40;56.00;;;;;;5087617;28;20467;-82
2021/08/11 01:43:55;;;;;;;2.83;2.63;;;23.30;56.10;;;;;;5095244;28;20751;-82
2021/08/11 01:46:23;;;;;;;2.53;2.43;;;23.30;56.00;;;;;;5086061;28;20502;-82
2021/08/11 01:48:52;;;;;;;2.50;2.40;;;23.30;56.00;;;;;;5086498;28;20452;-82
2021/08/11 01:51:20;;;;;;;2.67;2.57;;;23.30;56.00;;;;;;5086827;28;20528;-82
2021/08/11 01:53:49;;;;;;;2.60;2.50;;;23.30;55.90;;;;;;5097782;28;20466;-83
2021/08/11 01:56:17;;;;;;;2.50;2.40;;;23.30;56.10;;;;;;5095460;28;20507;-83
2021/08/11 01:58:45;;;;;;;2.90;2.70;;;23.40;56.10;;;;;;5093962;28;20470;-83
2021/08/11 02:01:13;;;;;;;3.07;2.87;;;23.30;55.90;;;;;;5095233;28;20514;-84
2021/08/11 02:03:42;;;;;;;2.97;2.63;;;23.30;56.00;;;;;;5095026;28;20873;-84
2021/08/11 02:06:11;;;;;;;2.40;2.30;;;23.30;55.90;;;;;;5091446;28;20457;-83
2021/08/11 02:08:40;;;;;;;2.27;2.17;;;23.30;56.00;;;;;;5090985;28;20466;-83
2021/08/11 02:11:08;;;;;;;2.70;2.50;;;23.30;56.00;;;;;;5094142;28;20514;-84
2021/08/11 02:13:37;;;;;;;2.53;2.43;;;23.30;56.00;;;;;;5087096;28;20490;-84
2021/08/11 02:16:05;;;;;;;4.10;2.43;;;23.30;56.00;;;;;;5087159;28;20472;-84
2021/08/11 02:18:33;;;;;;;2.37;2.27;;;23.30;56.10;;;;;;5088023;28;20514;-84
2021/08/11 02:21:01;;;;;;;2.80;2.60;;;23.30;56.00;;;;;;5093444;28;20540;-83
2021/08/11 02:23:30;;;;;;;2.77;2.53;;;23.30;56.00;;;;;;5086338;28;20826;-83
2021/08/11 02:26:03;;;;;;;4.00;2.97;;;23.30;56.70;;;;;;5086256;28;20465;-83
2021/08/11 02:28:43;;;;;;;2.60;2.50;;;23.20;56.00;;;;;;5074486;28;20462;-82
2021/08/11 02:31:13;;;;;;;3.83;2.80;;;23.20;56.00;;;;;;5094093;28;20487;-82
2021/08/11 02:33:44;;;;;;;2.63;2.43;;;23.20;56.10;;;;;;5073810;28;20444;-83
2021/08/11 02:36:14;;;;;;;2.70;2.60;;;23.20;56.00;;;;;;5093666;28;20539;-82
2021/08/11 02:38:43;;;;;;;2.80;2.60;;;23.20;56.00;;;;;;5085869;28;20440;-82
2021/08/11 02:41:12;;;;;;;2.90;2.73;;;23.10;55.90;;;;;;5102931;28;20438;-83
2021/08/11 02:43:44;;;;;;;2.43;2.33;;;23.20;56.00;;;;;;5079947;28;21009;-83
2021/08/11 02:46:12;;;;;;;2.77;2.57;;;23.20;56.10;;;;;;5083826;28;20431;-84
2021/08/11 02:48:40;;;;;;;2.80;2.60;;;23.20;56.00;;;;;;5075590;28;20470;-84
2021/08/11 02:51:09;;;;;;;3.47;2.87;;;23.10;55.90;;;;;;5083513;28;20522;-83
2021/08/11 02:53:38;;;;;;;2.90;2.70;;;23.10;55.90;;;;;;5084470;28;20483;-82
2021/08/11 02:56:07;;;;;;;2.73;2.60;;;23.10;56.00;;;;;;5091508;28;20532;-83
2021/08/11 02:58:35;;;;;;;2.50;2.40;;;23.10;55.90;;;;;;5086250;28;20468;-82
2021/08/11 03:01:02;;;;;;;3.00;2.73;;;23.10;56.00;;;;;;5085622;28;20468;-83
2021/08/11 03:03:30;;;;;;;2.30;2.20;;;23.10;56.10;;;;;;5092733;28;20456;-84
2021/08/11 03:05:58;;;;;;;2.50;2.40;;;23.10;56.00;;;;;;5086376;28;20441;-83
2021/08/11 03:08:27;;;;;;;2.33;2.17;;;23.10;55.90;;;;;;5085677;28;20476;-83
2021/08/11 03:10:55;;;;;;;2.80;2.60;;;23.10;56.00;;;;;;5092028;28;20446;-83
2021/08/11 03:13:24;;;;;;;2.90;2.70;;;23.10;56.00;;;;;;5090110;28;20449;-84
2021/08/11 03:15:52;;;;;;;2.60;2.50;;;23.10;55.90;;;;;;5087804;28;20692;-83
2021/08/11 03:18:20;;;;;;;2.70;2.60;;;23.10;56.00;;;;;;5090931;28;20453;-83
2021/08/11 03:20:47;;;;;;;2.90;2.80;;;23.10;56.00;;;;;;5085487;28;20447;-83
2021/08/11 03:23:15;;;;;;;3.00;2.80;;;23.10;56.00;;;;;;5085139;28;20502;-82
2021/08/11 03:25:43;;;;;;;2.47;2.37;;;23.10;56.00;;;;;;5085987;28;20460;-83
2021/08/11 03:28:11;;;;;;;2.93;2.77;;;23.10;56.00;;;;;;5085952;28;20676;-84
2021/08/11 03:30:42;;;;;;;4.70;2.40;;;23.10;55.90;;;;;;5090638;28;20460;-83
2021/08/11 03:33:10;;;;;;;2.47;2.37;;;23.10;56.00;;;;;;5089454;28;20466;-83
2021/08/11 03:35:38;;;;;;;2.47;2.37;;;23.10;55.90;;;;;;5085087;28;20467;-83
2021/08/11 03:38:06;;;;;;;2.43;2.33;;;23.10;56.00;;;;;;5088694;28;20517;-83
2021/08/11 03:40:33;;;;;;;3.30;2.33;;;23.10;56.00;;;;;;5086835;28;20429;-83
2021/08/11 03:43:01;;;;;;;2.53;2.43;;;23.10;56.00;;;;;;5084490;28;20459;-82
2021/08/11 03:45:29;;;;;;;2.17;2.07;;;23.10;55.90;;;;;;5083725;28;20503;-83
2021/08/11 03:47:58;;;;;;;3.00;2.80;;;23.10;56.00;;;;;;5086419;28;20443;-82
2021/08/11 03:50:29;;;;;;;2.50;2.40;;;23.00;55.90;;;;;;5085760;28;20429;-84
2021/08/11 03:52:57;;;;;;;2.77;2.57;;;23.10;56.00;;;;;;5085173;28;20514;-83
2021/08/11 03:55:30;;;;;;;2.40;2.23;;;23.00;56.50;;;;;;5085748;28;20428;-84
2021/08/11 03:57:58;;;;;;;2.60;2.43;;;23.00;55.90;;;;;;5087688;28;20516;-83
2021/08/11 04:00:26;;;;;;;2.53;2.43;;;23.00;56.00;;;;;;5088984;28;20463;-84
2021/08/11 04:02:54;;;;;;;3.37;2.73;;;23.00;56.00;;;;;;5090708;28;20440;-83
2021/08/11 04:05:25;;;;;;;2.90;2.70;;;23.00;56.00;;;;;;5090317;28;20698;-83
2021/08/11 04:07:53;;;;;;;2.70;2.60;;;22.90;55.80;;;;;;5099066;28;20475;-83
2021/08/11 04:10:20;;;;;;;2.73;2.53;;;22.90;55.90;;;;;;5103215;28;20402;-83
2021/08/11 04:12:48;;;;;;;2.43;2.33;;;22.90;55.90;;;;;;5108260;28;20471;-83
2021/08/11 04:15:17;;;;;;;3.07;2.87;;;22.90;56.00;;;;;;5114282;28;20942;-83
2021/08/11 04:17:44;;;;;;;2.50;2.30;;;22.90;56.00;;;;;;5111352;28;20475;-83
2021/08/11 04:20:14;;;;;;;3.43;3.07;;;22.90;56.10;;;;;;5112390;28;20441;-84
2021/08/11 04:22:43;;;;;;;3.00;2.80;;;22.90;56.10;;;;;;5109678;28;20428;-83
2021/08/11 04:25:11;;;;;;;2.33;2.23;;;22.90;56.10;;;;;;5111388;28;20448;-83
2021/08/11 04:27:39;;;;;;;2.60;2.50;;;22.90;56.00;;;;;;5111247;28;20453;-84
2021/08/11 04:30:08;;;;;;;2.83;2.73;;;22.90;56.00;;;;;;5106403;28;20494;-85
2021/08/11 04:32:36;;;;;;;2.67;2.47;;;22.90;56.00;;;;;;5106036;28;20503;-83
2021/08/11 04:35:06;;;;;;;2.67;2.47;;;22.90;56.00;;;;;;5114852;28;20503;-84
2021/08/11 04:37:34;;;;;;;2.50;2.27;;;22.90;56.20;;;;;;5110684;28;20489;-83
2021/08/11 04:40:03;;;;;;;2.93;2.73;;;22.90;56.10;;;;;;5105240;28;20516;-83
2021/08/11 04:42:31;;;;;;;2.23;2.13;;;22.90;56.00;;;;;;5105457;28;20509;-83
2021/08/11 04:44:59;;;;;;;2.23;2.13;;;22.90;55.90;;;;;;5105245;28;20447;-83
2021/08/11 04:47:26;;;;;;;3.00;2.80;;;22.90;55.90;;;;;;5106266;28;20515;-83
2021/08/11 04:49:54;;;;;;;2.37;2.27;;;22.90;55.90;;;;;;5108954;28;20463;-83
2021/08/11 04:52:22;;;;;;;2.40;2.30;;;22.90;56.00;;;;;;5108830;28;20522;-83
2021/08/11 04:54:50;;;;;;;2.33;2.23;;;22.90;56.10;;;;;;5114933;28;20446;-82
2021/08/11 04:57:19;;;;;;;2.83;2.63;;;22.90;55.90;;;;;;5110419;28;20499;-84
2021/08/11 04:59:47;;;;;;;2.60;2.40;;;22.90;55.80;;;;;;5111453;28;20502;-84
2021/08/11 05:02:15;;;;;;;2.40;2.30;;;22.90;55.80;;;;;;5113850;28;20455;-83
2021/08/11 05:04:43;;;;;;;2.83;2.63;;;23.00;55.90;;;;;;5108318;28;20467;-82
2021/08/11 05:07:11;;;;;;;2.87;2.67;;;23.00;55.90;;;;;;5111216;28;20451;-82
2021/08/11 05:09:38;;;;;;;2.63;2.53;;;23.00;55.90;;;;;;5112866;28;20534;-83
2021/08/11 05:12:07;;;;;;;2.90;2.70;;;23.00;55.90;;;;;;5113612;28;20438;-83
2021/08/11 05:14:36;;;;;;;2.80;2.60;;;23.00;55.70;;;;;;5112221;28;20471;-83
2021/08/11 05:17:04;;;;;;;2.63;2.43;;;23.00;55.70;;;;;;5114496;28;20463;-83
2021/08/11 05:19:32;;;;;;;2.30;2.17;;;23.10;55.80;;;;;;5114569;28;20499;-83
2021/08/11 05:22:00;;;;;;;2.07;1.97;;;23.00;55.70;;;;;;5114699;28;20479;-83
2021/08/11 05:24:28;;;;;;;2.40;2.30;;;23.00;55.70;;;;;;5108661;28;20446;-84
2021/08/11 05:26:55;;;;;;;2.50;2.40;;;23.10;55.70;;;;;;5110773;28;20627;-84
2021/08/11 05:29:24;;;;;;;2.87;2.67;;;23.00;55.50;;;;;;5106273;28;20540;-83
2021/08/11 05:31:53;;;;;;;2.70;2.57;;;23.00;55.60;;;;;;5113082;28;20501;-82
2021/08/11 05:34:21;;;;;;;2.43;2.23;;;23.00;55.60;;;;;;5109573;28;20407;-83
2021/08/11 05:36:48;;;;;;;2.43;2.33;;;23.10;55.70;;;;;;5109783;28;20458;-83
2021/08/11 05:39:16;;;;;;;2.67;2.47;;;23.10;55.60;;;;;;5105594;28;20470;-82
2021/08/11 05:41:44;;;;;;;3.30;2.90;;;23.10;55.60;;;;;;5111062;28;20474;-83
2021/08/11 05:44:12;;;;;;;2.40;2.30;;;23.10;55.60;;;;;;5114596;28;20407;-83
2021/08/11 05:46:40;;;;;;;2.50;2.40;;;23.10;55.60;;;;;;5110077;28;20468;-84
2021/08/11 05:49:10;;;;;;;3.47;3.07;;;23.10;55.60;;;;;;5108972;28;20484;-84
2021/08/11 05:51:38;;;;;;;2.27;2.13;;;23.10;55.60;;;;;;5105947;28;20482;-84
2021/08/11 05:54:06;;;;;;;2.87;2.67;;;23.10;55.60;;;;;;5106405;28;20446;-83
2021/08/11 05:56:34;;;;;;;2.60;2.50;;;23.10;55.50;;;;;;5109610;28;20473;-83
2021/08/11 05:59:02;;;;;;;2.27;2.17;;;23.10;55.50;;;;;;5111036;28;20503;-83
2021/08/11 06:01:31;;;;;;;2.60;2.50;;;23.20;55.50;;;;;;5112353;28;20468;-84
2021/08/11 06:03:59;;;;;;;2.97;2.77;;;23.10;55.50;;;;;;5106333;28;20539;-83
2021/08/11 06:06:29;;;;;;;2.80;2.60;;;23.10;55.30;;;;;;5105309;28;20414;-83
2021/08/11 06:08:57;;;;;;;2.63;2.53;;;23.10;55.40;;;;;;5105163;28;20716;-83
2021/08/11 06:11:24;;;;;;;2.50;2.40;;;23.20;55.50;;;;;;5105358;28;20407;-83
2021/08/11 06:13:52;;;;;;;2.47;2.37;;;23.30;55.40;;;;;;5105039;28;20482;-83
2021/08/11 06:16:20;;;;;;;2.53;2.37;;;23.30;55.40;;;;;;5111367;28;20436;-83
2021/08/11 06:18:48;;;;;;;3.07;2.87;;;23.30;55.30;;;;;;5108180;28;20830;-85
2021/08/11 06:21:16;;;;;;;2.60;2.50;;;23.30;55.30;;;;;;5108461;28;20434;-84
2021/08/11 06:23:45;;;;;;;2.70;2.60;;;23.30;55.20;;;;;;5105221;28;20457;-84
2021/08/11 06:26:13;;;;;;;2.53;2.40;;;23.40;55.20;;;;;;5105235;28;20438;-84
2021/08/11 06:28:41;;;;;;;2.50;2.40;;;23.40;55.10;;;;;;5104781;28;20479;-83
2021/08/11 06:31:09;;;;;;;2.43;2.30;;;23.40;55.00;;;;;;5107235;28;20491;-83
2021/08/11 06:33:37;;;;;;;3.13;2.90;;;23.50;55.20;;;;;;5113703;28;20447;-84
2021/08/11 06:36:05;;;;;;;2.80;2.70;;;23.50;54.90;;;;;;5105312;28;20521;-80
2021/08/11 06:38:33;;;;;;;2.70;2.60;;;23.50;54.80;;;;;;5110619;28;20514;-82
2021/08/11 06:41:02;;;;;;;2.83;2.67;;;23.60;55.00;;;;;;5106623;28;20454;-83
2021/08/11 06:43:30;;;;;;;2.70;2.60;;;23.70;54.90;;;;;;5106209;28;20667;-83
2021/08/11 06:45:57;;;;;;;2.80;2.70;;;23.70;54.60;;;;;;5128362;28;20497;-82
2021/08/11 06:48:25;;;;;;;2.93;2.67;;;23.80;54.50;;;;;;5108000;28;20483;-81
2021/08/11 06:50:55;;;;;;;2.80;2.70;;;23.80;54.40;;;;;;5103824;28;20882;-82
2021/08/11 06:53:23;;;;;;;3.07;2.87;;;23.90;54.40;;;;;;5113166;28;20446;-82
2021/08/11 06:55:50;;;;;;;3.00;2.80;;;24.00;54.40;;;;;;5106270;28;20896;-83
2021/08/11 06:58:20;;;;;;;2.67;2.57;;;24.10;54.40;;;;;;5107514;28;20568;-81
2021/08/11 07:00:47;;;;;;;2.97;2.63;;;24.10;54.20;;;;;;5104179;28;20463;-83
2021/08/11 07:03:16;;;;;;;2.50;2.40;;;24.20;54.90;;;;;;5108053;28;20434;-82
2021/08/11 07:05:44;;;;;;;3.00;2.80;;;24.30;54.10;;;;;;5104365;28;20447;-82
2021/08/11 07:08:12;;;;;;;2.63;2.50;;;24.40;54.10;;;;;;5104082;28;20442;-82
2021/08/11 07:10:42;;;;;;;2.97;2.77;;;24.40;53.90;;;;;;5103986;28;20442;-82
2021/08/11 07:13:09;;;;;;;3.63;3.27;;;24.40;54.00;;;;;;5110038;28;20451;-82
2021/08/11 07:15:39;;;;;;;2.50;2.40;;;24.50;53.70;;;;;;5105932;28;20464;-83
2021/08/11 07:18:07;;;;;;;2.63;2.53;;;24.60;53.90;;;;;;5105606;28;20442;-83
2021/08/11 07:20:35;;;;;;;2.40;2.30;;;24.70;53.90;;;;;;5106179;28;20453;-82
2021/08/11 07:23:04;;;;;;;3.00;2.80;;;24.80;53.80;;;;;;5105440;28;20482;-83
2021/08/11 07:25:32;;;;;;;3.07;2.90;;;24.80;53.70;;;;;;5105244;28;20475;-83
2021/08/11 07:28:00;;;;;;;6.47;2.80;;;24.90;53.80;;;;;;5104459;28;20395;-82
2021/08/11 07:30:27;;;;;;;3.00;2.80;;;24.90;53.80;;;;;;5106140;28;20443;-82
2021/08/11 07:32:56;;;;;;;2.60;2.50;;;25.00;53.70;;;;;;5107784;28;20446;-82
2021/08/11 07:35:24;;;;;;;5.23;2.80;;;25.00;53.90;;;;;;5107593;28;20467;-83
2021/08/11 07:37:53;;;;;;;3.10;2.70;;;25.00;53.60;;;;;;5106713;28;20537;-82
2021/08/11 07:40:22;;;;;;;2.93;2.73;;;25.00;53.70;;;;;;5106759;28;20522;-82
2021/08/11 07:42:50;;;;;;;2.80;2.70;;;25.00;53.70;;;;;;5111603;28;20454;-81
2021/08/11 07:45:19;;;;;;;3.27;3.07;;;25.00;53.90;;;;;;5106511;28;20414;-82
2021/08/11 07:47:48;;;;;;;3.07;2.87;;;25.10;53.70;;;;;;5086860;28;20540;-82
2021/08/11 07:50:18;;;;;;;2.80;2.60;;;25.20;53.60;;;;;;5087979;28;20395;-82
2021/08/11 07:52:46;;;;;;;3.10;2.97;;;25.20;53.50;;;;;;5089859;28;20431;-84
2021/08/11 07:55:15;;;;;;;2.90;2.80;;;25.30;53.60;;;;;;5088497;28;20418;-82
2021/08/11 07:57:43;;;;;;;2.90;2.70;;;25.30;53.50;;;;;;5082127;28;20560;-82
2021/08/11 08:00:11;;;;;;;2.93;2.80;;;25.40;53.60;;;;;;5089360;28;20907;-83
2021/08/11 08:02:39;;;;;;;2.87;2.63;;;25.50;53.70;;;;;;5091880;28;20524;-82
2021/08/11 08:05:08;;;;;;;3.27;3.07;;;25.60;53.60;;;;;;5091190;28;20411;-83
2021/08/11 08:07:37;;;;;;;3.47;3.27;;;25.70;53.60;;;;;;5086891;28;20458;-82
2021/08/11 08:10:06;;;;;;;3.53;3.33;;;25.80;53.40;;;;;;5092652;28;20455;-83
2021/08/11 08:12:39;;;;;;;3.53;3.23;;;25.90;53.20;;;;;;5097609;28;20414;-84
2021/08/11 08:15:07;;;;;;;3.47;3.27;;;26.00;53.30;;;;;;5094467;28;20462;-82
2021/08/11 08:17:35;;;;;;;3.10;3.00;;;26.10;53.10;;;;;;5090079;28;20444;-84
2021/08/11 08:20:14;;;;;;;3.40;2.87;;;26.20;53.00;;;;;;5092584;28;20530;-82
2021/08/11 08:22:43;;;;;;;3.20;3.10;;;26.40;52.90;;;;;;5098076;28;20433;-84
2021/08/11 08:25:11;;;;;;;3.43;3.10;;;26.50;52.80;;;;;;5091615;28;20410;-83
2021/08/11 08:27:40;;;;;;;3.20;2.97;;;26.60;52.60;;;;;;5097595;28;20703;-84
2021/08/11 08:30:08;;;;;;;3.53;3.23;;;26.70;52.50;;;;;;5095358;28;20428;-82
2021/08/11 08:32:36;;;;;;;3.60;3.30;;;26.90;52.40;;;;;;5097093;28;20431;-83
2021/08/11 08:35:05;;;;;;;2.97;2.83;;;27.00;52.30;;;;;;5099620;28;20429;-83
2021/08/11 08:37:36;;;;;;;3.47;2.80;;;27.10;52.10;;;;;;5100073;28;20464;-82
2021/08/11 08:40:07;;;;;;;3.33;3.13;;;27.20;51.90;;;;;;5098181;28;20539;-82
2021/08/11 08:42:36;;;;;;;3.47;3.17;;;27.30;51.90;;;;;;5091999;28;20423;-82
2021/08/11 08:45:05;;;;;;;3.43;3.10;;;27.40;52.00;;;;;;5099440;28;20419;-83
2021/08/11 08:47:33;;;;;;;3.13;3.03;;;27.50;51.80;;;;;;5098964;28;20481;-83
2021/08/11 08:50:00;;;;;;;3.13;2.93;;;27.60;51.60;;;;;;5095631;28;20437;-82
2021/08/11 08:52:29;;;;;;;3.37;3.17;;;27.70;51.50;;;;;;5095914;28;20494;-81
2021/08/11 08:54:57;;;;;;;3.70;3.43;;;27.80;51.40;;;;;;5093799;28;20439;-81
2021/08/11 08:57:27;;;;;;;4.17;2.90;;;27.90;51.40;;;;;;5094805;28;20415;-81
2021/08/11 08:59:55;;;;;;;2.90;2.80;;;28.10;51.30;;;;;;5094900;28;20562;-82
2021/08/11 09:02:22;;;;;;;3.50;3.20;;;28.20;51.10;;;;;;5095347;28;20498;-83
2021/08/11 09:04:51;;;;;;;3.10;2.90;;;28.20;51.00;;;;;;5089828;28;20487;-85
2021/08/11 09:07:19;;;;;;;5.80;2.87;;;28.30;50.90;;;;;;5090545;28;20633;-84
2021/08/11 09:09:47;;;;;;;3.83;3.50;;;28.40;50.90;;;;;;5088391;28;20415;-82
2021/08/11 09:12:17;;;;;;;3.13;2.93;;;28.40;50.70;;;;;;5091697;28;20488;-83
2021/08/11 09:14:47;;;;;;;3.60;3.33;;;28.50;50.80;;;;;;5090605;28;20667;-83
2021/08/11 09:17:32;;;;;;;3.60;3.00;;;28.50;50.80;;;;;;5091326;28;20680;-82
2021/08/11 09:20:00;;;;;;;3.50;3.30;;;28.70;51.00;;;;;;5092972;28;20504;-82
2021/08/11 09:22:28;;;;;;;3.30;3.10;;;28.80;50.80;;;;;;5091454;28;20518;-82
2021/08/11 09:25:07;;;;;;;3.20;3.10;;;28.90;50.60;;;;;;5089640;28;20436;-82
2021/08/11 09:27:39;;;;;;;3.50;3.30;;;29.00;50.40;;;;;;5089590;28;20403;-82
2021/08/11 09:30:10;;;;;;;3.13;2.93;;;29.10;50.40;;;;;;5081698;28;20473;-83
2021/08/11 09:32:51;;;;;;;3.33;3.23;;;29.20;50.30;;;;;;5090084;28;20899;-83
2021/08/11 09:35:20;;;;;;;3.40;3.20;;;29.30;50.30;;;;;;5089752;28;20432;-83
2021/08/11 09:37:49;;;;;;;4.00;3.13;;;29.40;50.00;;;;;;5089457;28;20524;-83
2021/08/11 09:40:18;;;;;;;2.90;2.70;;;29.40;50.10;;;;;;5090004;28;20516;-83
2021/08/11 09:42:46;;;;;;;3.57;3.40;;;29.40;50.70;;;;;;5089083;28;20457;-82
2021/08/11 09:45:16;;;;;;;3.23;3.03;;;29.50;50.00;;;;;;5087998;28;20408;-82
2021/08/11 09:47:57;;;;;;;4.40;3.40;;;29.50;50.20;;;;;;5090236;28;20465;-82
2021/08/11 09:50:35;;;;;;;3.30;3.10;;;29.60;50.00;;;;;;5088536;28;20431;-81
2021/08/11 09:53:04;;;;;;;3.47;3.17;;;29.70;50.00;;;;;;5086935;28;20502;-82
2021/08/11 09:55:32;;;;;;;3.50;3.30;;;29.80;50.00;;;;;;5090775;28;20521;-81
2021/08/11 09:57:59;;;;;;;5.23;3.30;;;29.90;49.90;;;;;;5091584;28;20488;-82
2021/08/11 10:00:40;;;;;;;3.27;3.03;;;30.00;49.80;;;;;;5094333;28;20500;-84
2021/08/11 10:03:08;;;;;;;3.80;3.40;;;30.10;49.40;;;;;;5096158;28;20898;-84
2021/08/11 10:05:37;;;;;;;3.33;3.20;;;30.10;49.10;;;;;;5091146;28;20419;-82
2021/08/11 10:08:05;;;;;;;3.97;3.67;;;30.00;49.30;;;;;;5088522;28;20435;-82
2021/08/11 10:10:44;;;;;;;3.93;3.33;;;30.00;49.40;;;;;;5087501;28;20444;-82
2021/08/11 10:13:12;;;;;;;3.33;3.13;;;30.20;49.80;;;;;;5087539;28;20480;-82
2021/08/11 10:15:42;;;;;;;4.83;3.30;;;30.20;49.50;;;;;;5087753;28;20829;-82
2021/08/11 10:18:10;;;;;;;3.57;3.37;;;30.20;49.20;;;;;;5088026;28;20423;-82
2021/08/11 10:20:38;;;;;;;3.13;2.83;;;30.30;49.20;;;;;;5093982;28;20439;-82
2021/08/11 10:23:05;;;;;;;2.90;2.70;;;30.20;49.10;;;;;;5098241;28;20459;-82
2021/08/11 10:25:33;;;;;;;3.67;3.40;;;30.20;49.20;;;;;;5097861;28;20955;-82
2021/08/11 10:28:01;;;;;;;7.33;3.57;;;30.30;49.30;;;;;;5097798;28;20411;-81
2021/08/11 10:30:29;;;;;;;3.67;3.43;;;30.40;49.50;;;;;;5097828;28;20486;-84
2021/08/11 10:32:58;;;;;;;3.03;2.83;;;30.60;49.50;;;;;;5081985;28;20441;-84
2021/08/11 10:35:26;;;;;;;3.30;3.10;;;30.80;49.10;;;;;;5084400;28;20444;-83
2021/08/11 10:37:54;;;;;;;3.77;3.47;;;30.90;48.70;;;;;;5088396;28;20543;-82
2021/08/11 10:40:22;;;;;;;3.07;2.97;;;31.10;48.80;;;;;;5085178;28;20475;-83
2021/08/11 10:42:54;;;;;;;3.60;3.30;;;31.30;48.40;;;;;;5080806;28;20442;-83
2021/08/11 10:45:23;;;;;;;3.40;3.20;;;31.60;48.00;;;;;;5081444;28;20442;-83
2021/08/11 10:47:51;;;;;;;3.40;3.10;;;31.70;47.70;;;;;;5080218;28;20405;-82
2021/08/11 10:50:20;;;;;;;3.37;3.17;;;31.90;47.40;;;;;;5084259;28;20456;-82
2021/08/11 10:52:49;;;;;;;4.10;3.07;;;31.90;47.10;;;;;;5078816;28;20427;-82
2021/08/11 10:55:18;;;;;;;3.37;3.17;;;32.10;47.20;;;;;;5070293;28;20460;-82
2021/08/11 10:57:46;;;;;;;2.97;2.77;;;32.10;47.00;;;;;;5072050;28;20503;-83
2021/08/11 11:00:38;;;;;;;3.60;3.30;;;32.30;46.80;;;;;;5067064;28;20440;-83
2021/08/11 11:03:06;;;;;;;3.30;3.10;;;32.50;46.60;;;;;;5070623;28;20418;-83
2021/08/11 11:06:05;;;;;;;3.17;2.97;;;32.60;46.40;;;;;;5074501;28;20467;-83
2021/08/11 11:08:37;;;;;;;3.37;3.17;;;32.70;46.20;;;;;;5069401;28;20430;-82
2021/08/11 11:14:53;;;;;;;4.90;3.80;;;31.60;44.00;;;;;;5072283;28;20450;-83
2021/08/11 11:17:22;;;;;;;4.00;3.60;;;31.60;44.20;;;;;;5088267;28;20517;-83
2021/08/11 11:20:20;;;;;;;6.77;4.33;;;31.70;42.20;;;;;;5087569;28;20507;-83
2021/08/11 11:23:00;;;;;;;8.17;4.07;;;31.30;41.80;;;;;;5075773;28;20453;-83
2021/08/11 11:26:04;;;;;;;8.57;3.93;;;31.50;43.30;;;;;;5081497;28;20474;-81
2021/08/11 11:28:52;;;;;;;5.20;4.27;;;31.80;41.40;;;;;;5087224;28;20503;-82
2021/08/11 11:31:42;;;;;;;5.50;3.60;;;31.70;42.30;;;;;;5069719;28;20462;-83
2021/08/11 11:34:38;;;;;;;5.60;4.10;;;31.90;42.10;;;;;;5070195;28;20444;-83
2021/08/11 11:37:25;;;;;;;5.20;3.70;;;31.80;41.80;;;;;;5067137;28;20494;-83
2021/08/11 11:40:05;;;;;;;4.17;3.83;;;32.10;42.60;;;;;;5064943;28;20483;-82
2021/08/11 11:42:34;;;;;;;4.60;3.50;;;32.10;41.70;;;;;;5098176;28;21010;-83
2021/08/11 11:45:02;;;;;;;3.57;3.27;;;32.30;40.80;;;;;;5107066;28;20862;-84
2021/08/11 11:48:10;;;;;;;4.60;3.40;;;32.50;41.00;;;;;;5105559;28;20568;-82
2021/08/11 11:50:44;;;;;;;4.07;3.73;;;32.50;39.80;;;;;;5103683;28;20482;-82
2021/08/11 11:53:26;;;;;;;4.53;3.83;;;32.10;40.60;;;;;;5103632;28;20506;-81
2021/08/11 11:55:55;;;;;;;4.33;4.10;;;31.90;41.20;;;;;;5103539;28;20459;-81
2021/08/11 11:58:24;;;;;;;3.73;3.50;;;32.20;41.60;;;;;;5080666;28;20682;-82
2021/08/11 12:00:59;;;;;;;3.50;3.30;;;32.20;40.50;;;;;;5088451;28;20475;-85
2021/08/11 12:03:36;;;;;;;8.30;4.00;;;32.30;41.30;;;;;;5084717;28;20434;-85
2021/08/11 12:06:04;;;;;;;4.07;3.77;;;32.50;41.00;;;;;;5073068;28;20476;-84
2021/08/11 12:08:32;;;;;;;3.87;3.50;;;32.50;40.70;;;;;;5075847;28;20492;-86
2021/08/11 12:11:06;;;;;;;6.53;4.10;;;32.40;40.80;;;;;;5068011;28;20959;-85
2021/08/11 12:13:46;;;;;;;6.63;4.37;;;32.60;40.60;;;;;;5076584;28;20446;-84
2021/08/11 12:16:15;;;;;;;4.43;4.03;;;32.70;41.00;;;;;;5074132;28;20421;-84
2021/08/11 12:18:45;;;;;;;5.20;3.73;;;32.50;40.30;;;;;;5075919;28;20445;-84
2021/08/11 12:21:14;;;;;;;5.13;4.53;;;32.30;40.70;;;;;;5079123;28;20460;-85
2021/08/11 12:23:42;;;;;;;7.20;4.90;;;32.60;41.10;;;;;;5066224;28;20500;-85
2021/08/11 12:26:16;;;;;;;5.30;3.97;;;32.80;41.20;;;;;;5084629;28;20472;-85
2021/08/11 12:28:48;;;;;;;4.73;4.20;;;32.70;40.30;;;;;;5082749;28;20510;-87
2021/08/11 12:31:17;;;;;;;6.00;3.70;;;32.50;39.90;;;;;;5083202;28;21112;-85
2021/08/11 12:33:46;;;;;;;4.87;4.33;;;32.60;40.50;;;;;;5083799;28;20448;-85
2021/08/11 12:36:19;;;;;;;6.00;4.10;;;32.40;40.70;;;;;;5083737;28;20519;-84
2021/08/11 12:38:58;;;;;;;6.40;4.03;;;32.30;40.10;;;;;;5082589;28;20502;-85
2021/08/11 12:41:29;;;;;;;4.17;3.87;;;32.30;40.50;;;;;;5083582;28;20475;-83
2021/08/11 12:43:58;;;;;;;8.33;4.00;;;32.10;40.60;;;;;;5083286;28;20437;-84
2021/08/11 12:46:40;;;;;;;4.53;3.80;;;31.80;41.00;;;;;;5083608;28;20772;-83
2021/08/11 12:49:15;;;;;;;3.70;3.50;;;31.80;41.40;;;;;;5082722;28;20461;-82
2021/08/11 12:51:43;;;;;;;4.23;3.70;;;31.70;41.30;;;;;;5097749;28;20465;-83
2021/08/11 12:54:12;;;;;;;5.57;4.17;;;31.60;40.60;;;;;;5089735;28;20476;-82
2021/08/11 12:56:59;;;;;;;5.13;3.97;;;31.50;41.20;;;;;;5084242;28;20433;-84
2021/08/11 12:59:46;;;;;;;4.33;3.97;;;31.40;41.80;;;;;;5084956;28;20493;-84
2021/08/11 13:02:21;;;;;;;4.60;3.80;;;31.30;41.70;;;;;;5086132;28;20472;-83
2021/08/11 13:04:50;;;;;;;4.03;3.77;;;31.30;41.60;;;;;;5081007;28;20441;-84
2021/08/11 13:07:18;;;;;;;4.07;3.73;;;31.30;42.60;;;;;;5080986;28;20441;-84